createdAt,value
2023-05-24T00:01:29.276Z,12.77
2023-05-24T00:04:30.927Z,12.98
2023-05-24T00:07:32.473Z,13.13
2023-05-24T00:10:33.979Z,13.70
2023-05-24T00:13:35.517Z,23.33
2023-05-24T00:16:37.196Z,14.65
2023-05-24T00:19:39.224Z,15.30
2023-05-24T00:22:41.846Z,14.23
2023-05-24T00:25:43.384Z,15.57
2023-05-24T00:28:44.881Z,15.32
2023-05-24T00:31:46.451Z,15.07
2023-05-24T00:34:48.049Z,15.57
2023-05-24T00:37:49.635Z,14.07
2023-05-24T00:40:51.371Z,13.68
2023-05-24T00:43:52.960Z,14.23
2023-05-24T00:46:54.542Z,13.50
2023-05-24T00:49:56.584Z,13.35
2023-05-24T00:53:02.193Z,13.07
2023-05-24T00:56:04.085Z,12.75
2023-05-24T00:59:05.877Z,13.18
2023-05-24T01:02:07.516Z,13.70
2023-05-24T01:05:09.237Z,11.93
2023-05-24T01:08:18.507Z,13.60
2023-05-24T01:11:46.051Z,11.95
2023-05-24T01:15:34.489Z,12.73
2023-05-24T01:18:41.500Z,12.23
2023-05-24T01:22:09.294Z,12.27
2023-05-24T01:25:29.044Z,11.70
2023-05-24T01:28:33.280Z,11.55
2023-05-24T01:31:36.586Z,11.15
2023-05-24T01:34:38.113Z,12.80
2023-05-24T01:37:39.557Z,11.85
2023-05-24T01:40:43.442Z,11.80
2023-05-24T01:43:56.227Z,11.15
2023-05-24T01:47:09.680Z,12.00
2023-05-24T01:50:20.048Z,11.03
2023-05-24T01:53:26.297Z,10.70
2023-05-24T01:56:32.028Z,10.85
2023-05-24T01:59:35.016Z,10.85
2023-05-24T02:02:37.353Z,11.13
2023-05-24T02:05:38.922Z,11.02
2023-05-24T02:08:40.844Z,10.55
2023-05-24T02:11:42.449Z,10.43
2023-05-24T02:14:43.951Z,10.75
2023-05-24T02:17:46.071Z,10.77
2023-05-24T02:20:48.629Z,11.52
2023-05-24T02:23:50.926Z,10.43
2023-05-24T02:26:52.417Z,11.35
2023-05-24T02:29:54.018Z,10.80
2023-05-24T02:32:56.137Z,10.50
2023-05-24T02:35:57.824Z,11.18
2023-05-24T02:38:59.350Z,10.48
2023-05-24T02:42:00.910Z,11.77
2023-05-24T02:45:02.867Z,10.75
2023-05-24T02:48:04.721Z,10.93
2023-05-24T02:51:06.459Z,10.90
2023-05-24T02:54:07.936Z,10.30
2023-05-24T02:57:09.436Z,11.32
2023-05-24T03:00:11.675Z,10.35
2023-05-24T03:03:15.223Z,11.85
2023-05-24T03:06:16.987Z,10.40
2023-05-24T03:09:20.391Z,10.25
2023-05-24T03:12:21.961Z,10.73
2023-05-24T03:15:23.562Z,11.20
2023-05-24T03:18:26.827Z,10.57
2023-05-24T03:21:29.399Z,10.88
2023-05-24T03:24:31.892Z,10.57
2023-05-24T03:27:33.424Z,10.40
2023-05-24T03:30:34.979Z,10.50
2023-05-24T03:33:36.873Z,10.35
2023-05-24T03:36:38.381Z,11.27
2023-05-24T03:39:39.931Z,10.57
2023-05-24T03:43:00.704Z,10.50
2023-05-24T03:46:22.422Z,10.30
2023-05-24T03:49:24.024Z,10.45
2023-05-24T03:52:25.873Z,10.43
2023-05-24T03:55:27.324Z,10.75
2023-05-24T03:58:28.834Z,10.32
2023-05-24T04:01:35.240Z,9.40
2023-05-24T04:04:39.802Z,9.40
2023-05-24T04:07:41.990Z,8.95
2023-05-24T04:10:43.987Z,9.10
2023-05-24T04:13:46.758Z,9.33
2023-05-24T04:16:48.368Z,8.75
2023-05-24T04:19:51.459Z,8.52
2023-05-24T04:22:53.912Z,9.40
2023-05-24T04:25:55.814Z,9.63
2023-05-24T04:28:58.140Z,9.02
2023-05-24T04:32:01.944Z,8.70
2023-05-24T04:35:04.349Z,8.55
2023-05-24T04:38:05.897Z,8.35
2023-05-24T04:41:07.496Z,8.68
2023-05-24T04:44:09.880Z,8.70
2023-05-24T04:47:12.787Z,9.27
2023-05-24T04:50:14.486Z,9.02
2023-05-24T04:53:15.984Z,8.88
2023-05-24T04:56:17.604Z,8.68
2023-05-24T04:59:19.145Z,8.15
2023-05-24T05:02:22.253Z,8.05
2023-05-24T05:05:23.879Z,8.07
2023-05-24T05:08:25.413Z,8.10
2023-05-24T05:11:27.833Z,8.15
2023-05-24T05:14:29.673Z,9.00
2023-05-24T05:17:31.287Z,8.38
2023-05-24T05:20:32.868Z,9.00
2023-05-24T05:23:34.556Z,8.93
2023-05-24T05:26:36.067Z,8.57
2023-05-24T05:29:37.629Z,9.10
2023-05-24T05:32:39.369Z,9.80
2023-05-24T05:35:41.312Z,8.95
2023-05-24T05:38:42.939Z,9.02
2023-05-24T05:41:46.610Z,8.45
2023-05-24T05:44:48.758Z,8.75
2023-05-24T05:47:50.420Z,8.80
2023-05-24T05:50:52.154Z,9.10
2023-05-24T05:53:53.709Z,9.20
2023-05-24T05:56:55.785Z,9.27
2023-05-24T05:59:57.290Z,9.05
2023-05-24T06:02:58.953Z,8.68
2023-05-24T06:06:00.501Z,9.07
2023-05-24T06:09:02.104Z,8.77
2023-05-24T06:12:04.007Z,9.52
2023-05-24T06:15:07.104Z,8.90
2023-05-24T06:18:08.642Z,8.82
2023-05-24T06:21:10.690Z,9.68
2023-05-24T06:24:13.306Z,9.30
2023-05-24T06:27:14.991Z,9.23
2023-05-24T06:30:16.742Z,8.88
2023-05-24T06:33:18.339Z,8.98
2023-05-24T06:36:19.906Z,9.77
2023-05-24T06:39:21.502Z,8.77
2023-05-24T06:42:23.054Z,8.05
2023-05-24T06:45:26.230Z,8.68
2023-05-24T06:48:27.867Z,8.13
2023-05-24T06:51:29.643Z,8.65
2023-05-24T06:54:31.714Z,8.38
2023-05-24T06:57:33.235Z,8.50
2023-05-24T07:00:34.734Z,8.57
2023-05-24T07:03:36.295Z,8.13
2023-05-24T07:06:37.844Z,8.80
2023-05-24T07:09:42.602Z,8.80
2023-05-24T07:12:44.121Z,8.20
2023-05-24T07:15:46.948Z,8.30
2023-05-24T07:18:48.429Z,8.07
2023-05-24T07:21:50.539Z,8.93
2023-05-24T07:24:52.073Z,7.90
2023-05-24T07:27:53.655Z,7.30
2023-05-24T07:30:55.131Z,7.47
2023-05-24T07:33:56.699Z,8.18
2023-05-24T07:37:00.564Z,7.88
2023-05-24T07:40:02.131Z,7.65
2023-05-24T07:43:04.350Z,8.00
2023-05-24T07:46:06.125Z,8.48
2023-05-24T07:49:07.746Z,8.02
2023-05-24T07:52:09.253Z,8.10
2023-05-24T07:55:11.623Z,7.43
2023-05-24T07:58:13.225Z,8.02
2023-05-24T08:01:14.800Z,7.47
2023-05-24T08:04:16.436Z,8.38
2023-05-24T08:07:18.465Z,7.28
2023-05-24T08:10:20.148Z,8.13
2023-05-24T08:13:21.874Z,8.20
2023-05-24T08:16:24.332Z,7.65
2023-05-24T08:19:25.968Z,8.60
2023-05-24T08:22:27.535Z,7.88
2023-05-24T08:25:29.077Z,8.18
2023-05-24T08:28:30.708Z,8.55
2023-05-24T08:31:33.401Z,8.07
2023-05-24T08:34:36.849Z,8.05
2023-05-24T08:37:39.453Z,8.02
2023-05-24T08:40:41.090Z,7.90
2023-05-24T08:43:43.826Z,7.85
2023-05-24T08:46:46.151Z,7.63
2023-05-24T08:49:48.401Z,7.93
2023-05-24T08:52:51.890Z,7.95
2023-05-24T08:55:55.807Z,6.90
2023-05-24T08:58:57.355Z,8.52
2023-05-24T09:02:00.160Z,7.38
2023-05-24T09:05:02.928Z,8.55
2023-05-24T09:08:04.872Z,8.38
2023-05-24T09:11:08.256Z,7.45
2023-05-24T09:14:10.381Z,8.38
2023-05-24T09:17:12.981Z,7.40
2023-05-24T09:20:14.667Z,7.28
2023-05-24T09:23:16.792Z,8.27
2023-05-24T09:26:18.328Z,7.90
2023-05-24T09:29:24.402Z,7.53
2023-05-24T09:32:26.034Z,7.70
2023-05-24T09:35:28.538Z,7.93
2023-05-24T09:38:30.219Z,7.32
2023-05-24T09:41:32.613Z,8.18
2023-05-24T09:44:34.226Z,7.38
2023-05-24T09:47:40.576Z,7.68
2023-05-24T09:50:42.273Z,6.97
2023-05-24T09:53:44.820Z,6.90
2023-05-24T09:56:46.874Z,7.18
2023-05-24T09:59:52.516Z,7.55
2023-05-24T10:03:06.694Z,8.13
2023-05-24T10:06:11.963Z,7.90
2023-05-24T10:09:14.458Z,7.93
2023-05-24T10:12:16.388Z,8.80
2023-05-24T10:15:17.938Z,7.20
2023-05-24T10:18:19.953Z,7.65
2023-05-24T10:21:23.489Z,7.13
2023-05-24T10:24:29.350Z,7.45
2023-05-24T10:27:31.683Z,8.20
2023-05-24T10:30:40.321Z,7.85
2023-05-24T10:33:44.793Z,8.10
2023-05-24T10:36:46.776Z,7.22
2023-05-24T10:39:48.583Z,7.28
2023-05-24T10:42:51.354Z,7.70
2023-05-24T10:45:53.183Z,7.25
2023-05-24T10:49:01.567Z,6.97
2023-05-24T10:52:08.767Z,7.45
2023-05-24T10:55:11.723Z,7.78
2023-05-24T10:58:13.207Z,8.15
2023-05-24T11:01:26.949Z,7.53
2023-05-24T11:04:32.281Z,6.88
2023-05-24T11:07:42.759Z,7.97
2023-05-24T11:10:45.262Z,7.45
2023-05-24T11:13:47.759Z,7.78
2023-05-24T11:16:51.355Z,7.93
2023-05-24T11:19:54.837Z,7.57
2023-05-24T11:22:56.493Z,8.00
2023-05-24T11:25:58.545Z,7.70
2023-05-24T11:29:04.157Z,7.53
2023-05-24T11:32:07.669Z,8.57
2023-05-24T11:35:11.605Z,7.78
2023-05-24T11:38:15.349Z,7.90
2023-05-24T11:41:17.342Z,7.65
2023-05-24T11:44:21.822Z,8.57
2023-05-24T11:47:23.599Z,7.82
2023-05-24T11:50:26.835Z,8.35
2023-05-24T11:53:30.108Z,7.18
2023-05-24T11:56:33.936Z,7.32
2023-05-24T11:59:37.817Z,7.90
2023-05-24T12:02:40.303Z,8.32
2023-05-24T12:05:42.413Z,7.50
2023-05-24T12:08:43.964Z,7.45
2023-05-24T12:11:50.536Z,7.80
2023-05-24T12:14:55.695Z,7.25
2023-05-24T12:17:58.279Z,7.15
2023-05-24T12:20:59.950Z,8.60
2023-05-24T12:24:31.415Z,7.57
2023-05-24T12:27:34.688Z,8.80
2023-05-24T12:30:37.963Z,8.15
2023-05-24T12:33:39.705Z,8.23
2023-05-24T12:36:43.180Z,8.10
2023-05-24T12:39:45.245Z,7.88
2023-05-24T12:42:54.522Z,7.93
2023-05-24T12:45:56.182Z,8.05
2023-05-24T12:48:58.188Z,7.85
2023-05-24T12:52:01.812Z,8.32
2023-05-24T12:55:03.582Z,7.30
2023-05-24T12:58:08.012Z,8.10
2023-05-24T13:01:09.776Z,7.90
2023-05-24T13:04:11.500Z,7.97
2023-05-24T13:07:13.059Z,7.50
2023-05-24T13:10:14.641Z,7.38
2023-05-24T13:13:16.205Z,7.53
2023-05-24T13:16:17.997Z,7.65
2023-05-24T13:19:19.671Z,7.47
2023-05-24T13:22:21.382Z,7.15
2023-05-24T13:25:23.104Z,7.35
2023-05-24T13:28:24.905Z,7.93
2023-05-24T13:31:26.840Z,7.95
2023-05-24T13:34:28.433Z,7.45
2023-05-24T13:37:29.962Z,6.88
2023-05-24T13:40:31.711Z,7.65
2023-05-24T13:43:33.261Z,7.03
2023-05-24T13:46:36.278Z,7.50
2023-05-24T13:49:38.040Z,7.30
2023-05-24T13:52:39.646Z,7.05
2023-05-24T13:55:41.228Z,7.65
2023-05-24T13:58:43.155Z,7.88
2023-05-24T14:01:45.736Z,7.10
2023-05-24T14:04:47.361Z,7.50
2023-05-24T14:07:49.149Z,6.70
2023-05-24T14:10:51.437Z,7.38
2023-05-24T14:16:57.809Z,7.70
2023-05-24T14:19:59.533Z,6.82
2023-05-24T14:23:01.633Z,7.10
2023-05-24T14:26:03.275Z,7.22
2023-05-24T14:29:04.827Z,7.50
2023-05-24T14:32:06.628Z,6.85
2023-05-24T14:35:08.598Z,7.22
2023-05-24T14:38:11.452Z,7.45
2023-05-24T14:41:12.958Z,7.22
2023-05-24T14:44:14.466Z,7.18
2023-05-24T14:47:15.980Z,7.40
2023-05-24T14:50:17.894Z,6.45
2023-05-24T14:53:19.507Z,7.40
2023-05-24T14:56:21.089Z,6.80
2023-05-24T14:59:22.577Z,6.40
2023-05-24T15:02:24.167Z,6.68
2023-05-24T15:05:25.827Z,6.80
2023-05-24T15:08:27.819Z,6.68
2023-05-24T15:11:29.580Z,6.45
2023-05-24T15:14:31.109Z,6.50
2023-05-24T15:17:32.614Z,6.30
2023-05-24T15:20:35.660Z,5.55
2023-05-24T15:23:43.449Z,5.68
2023-05-24T15:26:45.137Z,5.88
2023-05-24T15:29:46.722Z,5.78
2023-05-24T15:32:48.312Z,5.93
2023-05-24T15:35:49.901Z,5.28
2023-05-24T15:38:51.568Z,5.35
2023-05-24T15:41:53.265Z,5.63
2023-05-24T15:44:54.766Z,5.93
2023-05-24T15:47:56.540Z,4.90
2023-05-24T15:51:57.562Z,5.68
2023-05-24T15:54:19.704Z,5.10
2023-05-24T15:57:21.886Z,5.70
2023-05-24T16:00:23.553Z,5.18
2023-05-24T16:03:25.137Z,5.25
2023-05-24T16:06:26.785Z,5.15
2023-05-24T16:09:28.313Z,4.80
2023-05-24T16:12:30.529Z,5.20
2023-05-24T16:15:34.793Z,5.75
2023-05-24T16:18:37.183Z,5.13
2023-05-24T16:21:39.149Z,4.90
2023-05-24T16:24:40.680Z,4.85
2023-05-24T16:27:42.241Z,4.80
2023-05-24T16:30:44.140Z,4.88
2023-05-24T16:33:46.113Z,4.97
2023-05-24T16:36:47.831Z,5.50
2023-05-24T16:39:49.438Z,5.43
2023-05-24T16:42:52.644Z,5.25
2023-05-24T16:45:55.235Z,4.53
2023-05-24T16:48:56.904Z,4.57
2023-05-24T16:51:58.454Z,4.93
2023-05-24T16:55:00.170Z,4.85
2023-05-24T16:58:01.705Z,4.90
2023-05-24T17:01:03.433Z,6.03
2023-05-24T17:04:05.088Z,5.18
2023-05-24T17:07:06.668Z,4.93
2023-05-24T17:10:08.686Z,4.53
2023-05-24T17:13:10.229Z,4.53
2023-05-24T17:16:13.820Z,4.70
2023-05-24T17:19:15.502Z,4.93
2023-05-24T17:22:17.065Z,5.78
2023-05-24T17:25:18.569Z,5.60
2023-05-24T17:28:20.223Z,5.00
2023-05-24T17:31:22.072Z,5.45
2023-05-24T17:34:23.643Z,5.22
2023-05-24T17:37:25.220Z,5.30
2023-05-24T17:40:26.785Z,5.07
2023-05-24T17:43:29.084Z,4.95
2023-05-24T17:46:32.060Z,5.07
2023-05-24T17:49:35.069Z,5.15
2023-05-24T17:52:36.834Z,5.35
2023-05-24T17:55:38.369Z,4.97
2023-05-24T17:58:40.049Z,4.88
2023-05-24T18:01:41.772Z,4.60
2023-05-24T18:04:43.410Z,5.38
2023-05-24T18:07:45.084Z,5.20
2023-05-24T18:10:46.647Z,4.55
2023-05-24T18:13:48.126Z,5.20
2023-05-24T18:16:49.944Z,4.78
2023-05-24T18:19:51.568Z,5.70
2023-05-24T18:22:53.129Z,5.35
2023-05-24T18:26:00.336Z,5.70
2023-05-24T18:29:03.287Z,5.35
2023-05-24T18:32:04.881Z,5.88
2023-05-24T18:35:07.065Z,5.75
2023-05-24T18:38:09.657Z,5.68
2023-05-24T18:41:12.052Z,5.88
2023-05-24T18:44:14.850Z,5.85
2023-05-24T18:47:16.478Z,5.72
2023-05-24T18:50:23.331Z,5.38
2023-05-24T18:53:25.849Z,5.55
2023-05-24T18:56:28.066Z,5.53
2023-05-24T18:59:31.539Z,5.70
2023-05-24T19:02:38.420Z,6.40
2023-05-24T19:05:43.390Z,5.65
2023-05-24T19:08:45.612Z,5.65
2023-05-24T19:11:47.960Z,6.22
2023-05-24T19:14:49.445Z,5.22
2023-05-24T19:17:53.176Z,5.13
2023-05-24T19:20:54.823Z,6.50
2023-05-24T19:23:56.317Z,5.95
2023-05-24T19:26:57.979Z,5.57
2023-05-24T19:30:00.125Z,6.10
2023-05-24T19:33:01.744Z,5.70
2023-05-24T19:36:03.464Z,6.68
2023-05-24T19:39:05.038Z,6.43
2023-05-24T19:42:06.827Z,5.95
2023-05-24T19:45:09.531Z,5.97
2023-05-24T19:48:11.113Z,6.13
2023-05-24T19:51:15.444Z,5.18
2023-05-24T19:54:16.945Z,6.47
2023-05-24T19:57:18.507Z,6.13
2023-05-24T20:00:20.074Z,5.93
2023-05-24T20:03:21.844Z,5.15
2023-05-24T20:06:23.396Z,6.22
2023-05-24T20:09:24.976Z,5.30
2023-05-24T20:12:27.655Z,5.97
2023-05-24T20:15:29.560Z,6.00
2023-05-24T20:18:31.024Z,5.88
2023-05-24T20:21:32.743Z,6.22
2023-05-24T20:24:34.238Z,6.57
2023-05-24T20:27:35.793Z,6.50
2023-05-24T20:30:37.529Z,6.25
2023-05-24T20:33:39.254Z,6.13
2023-05-24T20:36:43.391Z,6.40
2023-05-24T20:39:45.379Z,6.10
2023-05-24T20:42:46.922Z,6.57
2023-05-24T20:45:48.986Z,6.78
2023-05-24T20:48:51.619Z,6.55
2023-05-24T20:51:53.187Z,6.72
2023-05-24T20:54:54.746Z,6.18
2023-05-24T20:57:56.311Z,6.30
2023-05-24T21:00:57.981Z,6.82
2023-05-24T21:03:59.611Z,6.50
2023-05-24T21:07:01.113Z,6.35
2023-05-24T21:10:02.723Z,7.03
2023-05-24T21:13:06.079Z,6.47
2023-05-24T21:16:07.644Z,6.80
2023-05-24T21:19:09.167Z,6.10
2023-05-24T21:22:10.711Z,6.63
2023-05-24T21:25:12.178Z,7.30
2023-05-24T21:28:14.088Z,6.95
2023-05-24T21:31:17.002Z,6.93
2023-05-24T21:34:18.547Z,7.10
2023-05-24T21:37:20.085Z,6.68
2023-05-24T21:40:21.619Z,6.95
2023-05-24T21:43:23.866Z,6.85
2023-05-24T21:46:25.475Z,6.85
2023-05-24T21:49:27.604Z,7.35
2023-05-24T21:52:29.442Z,6.85
2023-05-24T21:55:31.395Z,6.50
2023-05-24T21:58:33.132Z,6.70
2023-05-24T22:01:34.734Z,7.30
2023-05-24T22:04:36.241Z,6.63
2023-05-24T22:07:37.831Z,6.82
2023-05-24T22:10:39.330Z,6.30
2023-05-24T22:13:40.839Z,6.72
2023-05-24T22:16:42.398Z,6.82
2023-05-24T22:19:44.007Z,6.70
2023-05-24T22:22:48.398Z,5.95
2023-05-24T22:25:50.026Z,5.80
2023-05-24T22:29:00.451Z,6.35
2023-05-24T22:32:02.011Z,6.68
2023-05-24T22:35:03.748Z,7.43
2023-05-24T22:38:05.582Z,6.50
2023-05-24T22:41:07.567Z,6.07
2023-05-24T22:44:09.130Z,6.30
2023-05-24T22:47:13.916Z,7.00
2023-05-24T22:50:15.771Z,8.32
2023-05-24T22:53:17.987Z,7.70
2023-05-24T22:56:19.610Z,7.65
2023-05-24T22:59:21.113Z,7.13
2023-05-24T23:02:22.614Z,7.47
2023-05-24T23:05:24.299Z,7.57
2023-05-24T23:08:25.975Z,7.40
2023-05-24T23:11:32.541Z,7.47
2023-05-24T23:14:38.371Z,6.85
2023-05-24T23:17:40.075Z,6.90
2023-05-24T23:20:42.674Z,6.45
2023-05-24T23:23:46.169Z,7.20
2023-05-24T23:26:47.756Z,7.35
2023-05-24T23:29:49.213Z,6.45
2023-05-24T23:32:50.808Z,6.55
2023-05-24T23:35:53.105Z,6.22
2023-05-24T23:38:54.592Z,6.18
2023-05-24T23:41:56.080Z,6.55
2023-05-24T23:44:57.566Z,6.20
2023-05-24T23:47:59.583Z,5.93
2023-05-24T23:51:01.130Z,6.10
2023-05-24T23:54:02.625Z,6.40
2023-05-24T23:57:04.283Z,5.90
